Time;durP1;ratioP1;P1;durP2;ratioP2;P2;SDS_P1;SDS_P2;PMS_P1;PMS_P2;Temp;Humidity;BMP_temperature;BMP_pressure;BME280_temperature;BME280_humidity;BME280_pressure;Samples;Min_cycle;Max_cycle;Signal;HPM_P1;HPM_P2
2022/10/26 00:00:52;;;;;;;10.77;3.28;;;12.60;99.90;;;;;;5094328;28;20032;-44
2022/10/26 00:03:18;;;;;;;11.52;2.78;;;12.60;99.90;;;;;;5094298;28;20510;-47
2022/10/26 00:05:44;;;;;;;9.93;3.10;;;12.60;99.90;;;;;;5094677;28;20020;-45
2022/10/26 00:08:10;;;;;;;5.13;2.90;;;12.50;99.90;;;;;;5094356;28;20020;-46
2022/10/26 00:10:37;;;;;;;5.55;2.97;;;12.50;99.90;;;;;;5094477;28;20487;-45
2022/10/26 00:13:05;;;;;;;6.50;2.88;;;12.50;99.90;;;;;;5094132;28;20028;-48
2022/10/26 00:15:31;;;;;;;6.97;2.58;;;12.50;99.90;;;;;;5094715;28;20464;-45
2022/10/26 00:17:56;;;;;;;7.28;2.90;;;12.50;99.90;;;;;;5093628;28;20119;-51
2022/10/26 00:20:22;;;;;;;9.40;2.83;;;12.50;99.90;;;;;;5094188;28;20111;-45
2022/10/26 00:22:47;;;;;;;17.33;3.33;;;12.50;99.90;;;;;;5093903;28;20028;-46
2022/10/26 00:25:13;;;;;;;8.90;2.40;;;12.40;99.90;;;;;;5094150;28;20024;-46
2022/10/26 00:27:38;;;;;;;7.70;3.80;;;12.50;99.90;;;;;;5094227;28;20034;-45
2022/10/26 00:30:05;;;;;;;9.65;3.03;;;12.50;99.90;;;;;;5094022;28;20031;-46
2022/10/26 00:32:32;;;;;;;5.82;2.35;;;12.60;99.90;;;;;;5093530;28;20028;-44
2022/10/26 00:34:57;;;;;;;6.28;3.10;;;12.60;99.90;;;;;;5093938;28;20024;-47
2022/10/26 00:37:23;;;;;;;12.90;2.70;;;12.60;99.90;;;;;;5093889;28;20046;-45
2022/10/26 00:39:48;;;;;;;10.18;3.60;;;12.60;99.90;;;;;;5092836;28;20084;-48
2022/10/26 00:42:19;;;;;;;10.32;3.25;;;12.60;99.90;;;;;;5093558;28;20099;-46
2022/10/26 00:44:48;;;;;;;8.93;3.05;;;12.50;99.90;;;;;;5093832;28;20020;-46
2022/10/26 00:47:28;;;;;;;7.40;3.25;;;12.50;99.90;;;;;;5093617;28;20031;-46
2022/10/26 00:49:56;;;;;;;9.13;3.45;;;12.50;99.90;;;;;;5093655;28;20024;-46
2022/10/26 00:52:23;;;;;;;10.48;4.68;;;12.50;99.90;;;;;;5093342;28;20020;-46
2022/10/26 00:54:49;;;;;;;8.77;3.22;;;12.50;99.90;;;;;;5092690;28;20031;-46
2022/10/26 00:57:16;;;;;;;9.73;4.10;;;12.40;99.90;;;;;;5093422;28;20024;-48
2022/10/26 00:59:44;;;;;;;10.57;3.65;;;12.40;99.90;;;;;;5093707;28;20035;-46
2022/10/26 01:02:10;;;;;;;5.80;3.30;;;12.40;99.90;;;;;;5093123;28;20016;-47
2022/10/26 01:04:36;;;;;;;21.33;3.30;;;12.40;99.90;;;;;;5093290;28;20085;-50
2022/10/26 01:07:03;;;;;;;10.40;3.97;;;12.30;99.90;;;;;;5093168;28;20027;-49
2022/10/26 01:09:30;;;;;;;13.32;3.97;;;12.30;99.90;;;;;;5093159;28;20016;-47
2022/10/26 01:11:55;;;;;;;10.60;3.88;;;12.30;99.90;;;;;;5091565;28;20021;-47
2022/10/26 01:14:22;;;;;;;13.25;4.28;;;12.40;99.90;;;;;;5093272;28;20027;-47
2022/10/26 01:16:59;;;;;;;11.18;3.53;;;12.40;99.90;;;;;;5092741;28;20032;-44
2022/10/26 01:19:56;;;;;;;8.80;3.45;;;12.40;99.90;;;;;;5091755;28;20028;-47
2022/10/26 01:22:33;;;;;;;10.85;3.97;;;12.40;99.90;;;;;;5092707;28;20052;-47
2022/10/26 01:24:58;;;;;;;11.18;3.13;;;12.40;99.90;;;;;;5092930;28;20162;-49
2022/10/26 01:27:30;;;;;;;7.47;3.67;;;12.30;99.90;;;;;;5092868;28;20102;-47
2022/10/26 01:30:26;;;;;;;6.72;3.50;;;12.40;99.90;;;;;;5092768;28;20028;-46
2022/10/26 01:33:10;;;;;;;;;;;12.40;99.90;;;;;;5093157;28;20058;-47
2022/10/26 01:35:51;;;;;;;16.83;3.30;;;12.40;99.90;;;;;;5092759;28;19911;-46
2022/10/26 01:38:23;;;;;;;6.43;3.38;;;12.40;99.90;;;;;;5092833;28;20433;-46
2022/10/26 01:41:24;;;;;;;8.02;3.20;;;12.40;99.90;;;;;;5092651;28;20103;-47
2022/10/26 01:44:14;;;;;;;9.77;3.30;;;12.50;99.90;;;;;;5088737;28;20089;-47
2022/10/26 01:46:44;;;;;;;9.52;3.67;;;12.50;99.90;;;;;;5088361;28;20035;-46
2022/10/26 01:49:14;;;;;;;9.80;4.00;;;12.50;99.90;;;;;;5092946;28;20108;-45
2022/10/26 01:51:42;;;;;;;5.45;3.45;;;12.40;99.90;;;;;;5092677;28;20028;-47
2022/10/26 01:54:07;;;;;;;9.45;3.95;;;12.50;99.90;;;;;;5092459;28;20309;-45
2022/10/26 01:56:40;;;;;;;12.55;4.20;;;12.40;99.90;;;;;;5092483;28;20051;-46
2022/10/26 01:59:25;;;;;;;14.82;3.47;;;12.40;99.90;;;;;;5092400;28;20024;-48
2022/10/26 02:02:06;;;;;;;7.97;3.38;;;12.40;99.90;;;;;;5092106;28;20036;-48
2022/10/26 02:04:50;;;;;;;6.38;3.67;;;12.30;99.90;;;;;;5092338;28;20391;-47
2022/10/26 02:07:37;;;;;;;8.90;3.53;;;12.40;99.90;;;;;;5090858;28;20107;-46
2022/10/26 02:10:31;;;;;;;6.55;3.67;;;12.40;99.90;;;;;;5092098;28;20020;-48
2022/10/26 02:12:56;;;;;;;5.75;3.47;;;12.40;99.90;;;;;;5092002;28;20024;-45
2022/10/26 02:15:47;;;;;;;10.30;3.45;;;12.30;99.90;;;;;;5092113;28;20066;-47
2022/10/26 02:18:42;;;;;;;12.25;4.35;;;12.30;99.90;;;;;;5080415;28;20039;-45
2022/10/26 02:21:20;;;;;;;8.43;4.15;;;12.30;99.90;;;;;;5091466;28;20028;-48
2022/10/26 02:23:47;;;;;;;5.85;3.35;;;12.40;99.90;;;;;;5091865;28;20106;-45
2022/10/26 02:26:16;;;;;;;7.18;3.92;;;12.40;99.90;;;;;;5091822;28;20411;-47
2022/10/26 02:28:46;;;;;;;11.50;4.45;;;12.30;99.90;;;;;;5091888;28;20185;-45
2022/10/26 02:31:13;;;;;;;12.23;4.20;;;12.40;99.90;;;;;;5091864;28;20032;-46
2022/10/26 02:33:47;;;;;;;13.70;4.95;;;12.30;99.90;;;;;;5090311;28;20024;-46
2022/10/26 02:36:16;;;;;;;12.15;4.28;;;12.20;99.90;;;;;;5091845;28;20544;-49
2022/10/26 02:38:42;;;;;;;7.20;4.88;;;12.30;99.90;;;;;;5091817;28;20089;-50
2022/10/26 02:41:11;;;;;;;8.73;3.70;;;12.20;99.90;;;;;;5091683;28;20065;-45
2022/10/26 02:43:43;;;;;;;13.68;4.20;;;12.30;99.90;;;;;;5091567;28;20054;-49
2022/10/26 02:46:14;;;;;;;9.68;4.00;;;12.20;99.90;;;;;;5092280;28;20039;-46
2022/10/26 02:48:39;;;;;;;9.18;3.60;;;12.20;99.90;;;;;;5091983;28;20020;-47
2022/10/26 02:51:17;;;;;;;9.45;3.30;;;12.20;99.90;;;;;;5091826;28;20035;-49
2022/10/26 02:53:49;;;;;;;10.73;4.95;;;12.20;99.90;;;;;;5091826;28;20384;-48
2022/10/26 02:56:21;;;;;;;8.13;4.38;;;12.20;99.90;;;;;;5091885;28;20024;-46
2022/10/26 02:58:51;;;;;;;9.55;3.90;;;12.20;99.90;;;;;;5091675;28;20028;-45
2022/10/26 03:01:17;;;;;;;8.45;3.80;;;12.20;99.90;;;;;;5091345;28;20503;-48
2022/10/26 03:03:43;;;;;;;9.30;3.50;;;12.20;99.90;;;;;;5091112;28;20039;-46
2022/10/26 03:06:08;;;;;;;7.35;3.88;;;12.20;99.90;;;;;;5091591;28;20089;-44
2022/10/26 03:08:34;;;;;;;7.65;3.63;;;12.30;99.90;;;;;;5091425;28;20491;-46
2022/10/26 03:10:59;;;;;;;5.05;3.17;;;12.30;99.90;;;;;;5091582;28;20024;-50
2022/10/26 03:13:25;;;;;;;9.90;3.95;;;12.30;99.90;;;;;;5091073;28;20023;-48
2022/10/26 03:15:54;;;;;;;9.73;3.88;;;12.30;99.90;;;;;;5090743;28;20098;-46
2022/10/26 03:18:20;;;;;;;7.28;3.35;;;12.30;99.90;;;;;;5094639;28;20020;-48
2022/10/26 03:20:45;;;;;;;10.73;4.63;;;12.40;99.90;;;;;;5095345;28;20024;-45
2022/10/26 03:23:11;;;;;;;8.63;3.40;;;12.30;99.90;;;;;;5095141;28;20028;-46
2022/10/26 03:25:37;;;;;;;9.60;3.50;;;12.40;99.90;;;;;;5095320;28;20509;-47
2022/10/26 03:28:03;;;;;;;12.80;3.83;;;12.40;99.90;;;;;;5095277;28;20403;-44
2022/10/26 03:30:30;;;;;;;7.60;2.83;;;12.40;99.90;;;;;;5095048;28;20482;-45
2022/10/26 03:32:56;;;;;;;6.75;4.18;;;12.40;99.90;;;;;;5094873;28;20487;-45
2022/10/26 03:35:22;;;;;;;10.10;4.60;;;12.50;99.90;;;;;;5093947;28;20054;-49
2022/10/26 03:37:47;;;;;;;7.38;3.95;;;12.50;99.90;;;;;;5095099;28;20028;-47
2022/10/26 03:40:13;;;;;;;5.18;3.53;;;12.60;99.90;;;;;;5095022;28;20051;-48
2022/10/26 03:42:39;;;;;;;7.50;3.72;;;12.60;99.90;;;;;;5094832;28;20103;-45
2022/10/26 03:45:05;;;;;;;7.38;3.15;;;12.60;99.90;;;;;;5094918;28;20024;-46
2022/10/26 03:47:31;;;;;;;6.72;3.33;;;12.60;99.90;;;;;;5093431;28;20024;-47
2022/10/26 03:49:56;;;;;;;8.98;3.53;;;12.70;99.90;;;;;;5094842;28;20036;-45
2022/10/26 03:52:23;;;;;;;7.78;3.85;;;12.70;99.90;;;;;;5094458;28;20028;-49
2022/10/26 03:54:49;;;;;;;6.40;3.15;;;12.70;99.90;;;;;;5094699;28;20069;-47
2022/10/26 03:57:15;;;;;;;10.82;3.85;;;12.70;99.90;;;;;;5094703;28;20519;-46
2022/10/26 03:59:41;;;;;;;12.23;4.05;;;12.70;99.90;;;;;;5094443;28;20119;-47
2022/10/26 04:02:06;;;;;;;19.95;4.13;;;12.70;99.90;;;;;;5094223;28;20028;-49
2022/10/26 04:04:32;;;;;;;11.13;3.60;;;12.70;99.90;;;;;;5094613;28;20028;-45
2022/10/26 04:06:57;;;;;;;9.77;4.00;;;12.60;99.90;;;;;;5093093;28;20074;-46
2022/10/26 04:09:23;;;;;;;13.85;4.28;;;12.60;99.90;;;;;;5094443;28;20097;-47
2022/10/26 04:11:48;;;;;;;10.13;3.75;;;12.60;99.90;;;;;;5094604;28;20030;-46
2022/10/26 04:14:14;;;;;;;9.43;3.80;;;12.50;99.90;;;;;;5094094;28;20024;-48
2022/10/26 04:16:39;;;;;;;11.02;3.80;;;12.50;99.90;;;;;;5092441;28;20486;-47
2022/10/26 04:19:05;;;;;;;6.65;3.17;;;12.50;99.90;;;;;;5094380;28;20499;-49
2022/10/26 04:21:32;;;;;;;9.27;3.47;;;12.50;99.90;;;;;;5094123;28;20394;-45
2022/10/26 04:23:57;;;;;;;10.25;3.67;;;12.50;99.90;;;;;;5093924;28;20393;-48
2022/10/26 04:26:23;;;;;;;8.48;3.45;;;12.50;99.90;;;;;;5094155;28;20081;-47
2022/10/26 04:28:49;;;;;;;7.82;3.95;;;12.50;99.90;;;;;;5092949;28;20028;-47
2022/10/26 04:31:14;;;;;;;16.33;4.22;;;12.40;99.90;;;;;;5094010;28;20023;-47
2022/10/26 04:33:40;;;;;;;11.77;4.15;;;12.40;99.90;;;;;;5093768;28;20028;-50
2022/10/26 04:36:06;;;;;;;13.77;4.30;;;12.40;99.90;;;;;;5094036;28;20491;-46
2022/10/26 04:38:31;;;;;;;7.60;3.85;;;12.40;99.90;;;;;;5093135;28;20071;-45
2022/10/26 04:40:57;;;;;;;10.32;3.97;;;12.40;99.90;;;;;;5094052;28;20533;-49
2022/10/26 04:43:22;;;;;;;14.68;4.43;;;12.30;99.90;;;;;;5093418;28;20470;-48
2022/10/26 04:45:48;;;;;;;8.20;4.68;;;12.30;99.90;;;;;;5093832;28;20048;-47
2022/10/26 04:48:13;;;;;;;14.30;4.25;;;12.30;99.90;;;;;;5092610;28;20032;-47
2022/10/26 04:50:39;;;;;;;7.55;4.78;;;12.30;99.90;;;;;;5093900;28;20110;-46
2022/10/26 04:53:07;;;;;;;11.35;4.45;;;12.30;99.90;;;;;;5093602;28;20078;-47
2022/10/26 04:55:33;;;;;;;6.45;4.43;;;12.20;99.90;;;;;;5094098;28;20024;-47
2022/10/26 04:57:58;;;;;;;12.85;5.00;;;12.10;99.90;;;;;;5093768;28;20567;-47
2022/10/26 05:00:24;;;;;;;14.02;4.28;;;12.10;99.90;;;;;;5109600;22;20311;-50
2022/10/26 05:02:50;;;;;;;11.75;4.50;;;12.10;99.90;;;;;;5052318;28;20035;-48
2022/10/26 05:05:15;;;;;;;11.02;5.18;;;12.10;99.90;;;;;;5053030;28;20036;-47
2022/10/26 05:07:41;;;;;;;8.02;4.32;;;12.20;99.90;;;;;;5052938;28;20029;-50
2022/10/26 05:10:07;;;;;;;14.45;4.97;;;12.30;99.90;;;;;;5053554;28;20070;-52
2022/10/26 05:12:32;;;;;;;17.10;4.80;;;12.20;99.90;;;;;;5072688;28;20503;-49
2022/10/26 05:14:58;;;;;;;12.07;3.90;;;12.30;99.90;;;;;;5072777;28;20028;-51
2022/10/26 05:17:25;;;;;;;18.90;4.50;;;12.20;99.90;;;;;;5072502;28;20043;-49
2022/10/26 05:19:59;;;;;;;6.65;3.88;;;12.20;99.90;;;;;;5072751;28;20051;-51
2022/10/26 05:22:24;;;;;;;6.45;4.43;;;12.20;99.90;;;;;;5071073;28;20170;-49
2022/10/26 05:24:50;;;;;;;7.32;4.60;;;12.30;99.90;;;;;;5072791;28;20100;-47
2022/10/26 05:27:16;;;;;;;13.75;4.40;;;12.30;99.90;;;;;;5072656;28;20342;-48
2022/10/26 05:29:41;;;;;;;8.50;3.28;;;12.20;99.90;;;;;;5073067;28;20025;-48
2022/10/26 05:32:07;;;;;;;7.28;3.65;;;12.30;99.90;;;;;;5072398;28;20040;-49
2022/10/26 05:34:32;;;;;;;13.30;4.57;;;12.20;99.90;;;;;;5073357;28;20031;-49
2022/10/26 05:36:58;;;;;;;9.52;3.83;;;12.20;99.90;;;;;;5072563;28;20098;-47
2022/10/26 05:39:23;;;;;;;10.25;4.70;;;12.20;99.90;;;;;;5072413;28;20035;-49
2022/10/26 05:41:49;;;;;;;10.02;3.47;;;12.20;99.90;;;;;;5072247;28;20476;-49
2022/10/26 05:44:14;;;;;;;6.55;4.60;;;12.20;99.90;;;;;;5072293;28;20032;-47
2022/10/26 05:46:40;;;;;;;11.05;4.57;;;12.20;99.90;;;;;;5072197;28;20029;-48
2022/10/26 05:49:06;;;;;;;12.00;4.13;;;12.20;99.90;;;;;;5072162;28;20480;-48
2022/10/26 05:51:33;;;;;;;9.40;4.15;;;12.20;99.90;;;;;;5072238;28;20032;-51
2022/10/26 05:53:58;;;;;;;11.00;4.35;;;12.20;99.90;;;;;;5072048;28;20031;-49
2022/10/26 05:56:38;;;;;;;6.53;3.60;;;12.20;99.90;;;;;;5072265;28;20021;-52
2022/10/26 05:59:13;;;;;;;10.10;3.63;;;12.30;99.90;;;;;;5072276;28;20052;-49
2022/10/26 06:01:47;;;;;;;14.73;5.03;;;12.30;99.90;;;;;;5071713;28;20536;-49
2022/10/26 06:04:18;;;;;;;20.92;5.07;;;12.30;99.90;;;;;;5070416;28;20045;-50
2022/10/26 06:06:46;;;;;;;7.70;3.55;;;12.30;99.90;;;;;;5071815;28;20029;-49
2022/10/26 06:09:13;;;;;;;6.72;4.00;;;12.30;99.90;;;;;;5071875;28;20025;-50
2022/10/26 06:11:39;;;;;;;11.35;3.95;;;12.30;99.90;;;;;;5071850;28;20502;-47
2022/10/26 06:14:06;;;;;;;12.50;6.15;;;12.30;99.90;;;;;;5071650;28;20025;-50
2022/10/26 06:16:34;;;;;;;8.65;4.28;;;12.30;99.90;;;;;;5070461;28;20028;-46
2022/10/26 06:19:18;;;;;;;7.40;3.75;;;12.20;99.90;;;;;;5071614;28;20104;-51
2022/10/26 06:21:55;;;;;;;8.95;4.43;;;12.20;99.90;;;;;;5072326;28;20063;-49
2022/10/26 06:24:43;;;;;;;9.15;4.10;;;12.20;99.90;;;;;;5072023;28;20039;-51
2022/10/26 06:27:39;;;;;;;7.55;3.75;;;12.20;99.90;;;;;;5071639;28;20502;-51
2022/10/26 06:30:06;;;;;;;;;;;12.20;99.90;;;;;;5072428;28;20381;-52
2022/10/26 06:32:32;;;;;;;9.05;4.07;;;12.20;99.90;;;;;;5071345;28;19908;-46
2022/10/26 06:35:35;;;;;;;5.45;3.72;;;12.30;99.90;;;;;;5071358;28;20021;-47
2022/10/26 06:38:09;;;;;;;15.35;4.20;;;12.20;99.90;;;;;;5071731;28;20031;-51
2022/10/26 06:40:38;;;;;;;12.25;4.60;;;12.30;99.90;;;;;;5069956;28;20024;-49
2022/10/26 06:43:15;;;;;;;20.90;4.10;;;12.30;99.90;;;;;;5071138;28;20083;-45
2022/10/26 06:45:48;;;;;;;8.60;3.55;;;12.30;99.90;;;;;;5071243;28;20037;-49
2022/10/26 06:48:20;;;;;;;5.45;3.35;;;12.40;99.90;;;;;;5071382;28;20025;-47
2022/10/26 06:50:51;;;;;;;10.57;3.78;;;12.40;99.90;;;;;;5070894;28;20441;-46
2022/10/26 06:53:36;;;;;;;11.88;4.78;;;12.40;99.90;;;;;;5070719;28;20404;-52
2022/10/26 06:56:02;;;;;;;12.23;4.33;;;12.40;99.90;;;;;;5071264;28;20052;-50
2022/10/26 06:58:32;;;;;;;15.35;4.93;;;12.40;99.90;;;;;;5071222;28;20518;-48
2022/10/26 07:00:57;;;;;;;7.88;4.70;;;12.40;99.90;;;;;;5070463;28;20033;-49
2022/10/26 07:03:23;;;;;;;12.65;4.05;;;12.40;99.90;;;;;;5070914;28;20108;-51
2022/10/26 07:05:49;;;;;;;8.38;3.88;;;12.40;99.90;;;;;;5069915;28;20029;-50
2022/10/26 07:08:14;;;;;;;6.03;4.05;;;12.40;99.90;;;;;;5071274;28;20024;-48
2022/10/26 07:10:41;;;;;;;15.07;4.68;;;12.40;99.90;;;;;;5071039;28;20023;-48
2022/10/26 07:13:07;;;;;;;10.73;4.43;;;12.40;99.90;;;;;;5070902;28;20391;-46
2022/10/26 07:15:34;;;;;;;14.07;5.00;;;12.40;99.90;;;;;;5071019;28;20086;-48
2022/10/26 07:18:00;;;;;;;13.57;4.57;;;12.30;99.90;;;;;;5071098;28;20112;-50
2022/10/26 07:20:26;;;;;;;5.18;4.07;;;12.30;99.90;;;;;;5071054;28;20571;-46
2022/10/26 07:22:56;;;;;;;10.45;4.13;;;12.30;99.90;;;;;;5070943;28;20148;-44
2022/10/26 07:25:23;;;;;;;11.30;3.97;;;12.40;99.90;;;;;;5071507;28;20127;-46
2022/10/26 07:27:48;;;;;;;13.45;3.92;;;12.40;99.90;;;;;;5070801;28;20082;-51
2022/10/26 07:30:14;;;;;;;13.07;3.92;;;12.50;99.90;;;;;;5070965;28;20021;-50
2022/10/26 07:32:40;;;;;;;5.95;3.63;;;12.50;99.90;;;;;;5070744;28;20531;-45
2022/10/26 07:35:05;;;;;;;12.32;4.25;;;12.50;99.90;;;;;;5070962;28;20545;-46
2022/10/26 07:37:31;;;;;;;7.60;4.00;;;12.60;99.90;;;;;;5069479;28;20031;-47
2022/10/26 07:39:57;;;;;;;7.25;4.22;;;12.70;99.90;;;;;;5070801;28;20024;-46
2022/10/26 07:42:22;;;;;;;5.95;3.50;;;12.70;99.90;;;;;;5070811;28;20021;-46
2022/10/26 07:44:48;;;;;;;7.07;4.32;;;12.80;99.90;;;;;;5070977;28;20455;-46
2022/10/26 07:47:13;;;;;;;6.10;4.10;;;12.80;99.90;;;;;;5070895;28;20035;-47
2022/10/26 07:49:39;;;;;;;8.80;4.20;;;12.80;99.90;;;;;;5071138;28;20027;-46
2022/10/26 07:52:05;;;;;;;8.10;3.78;;;12.90;99.90;;;;;;5070927;28;20412;-46
2022/10/26 07:54:31;;;;;;;9.70;4.45;;;12.90;99.90;;;;;;5070934;28;20033;-51
2022/10/26 07:56:56;;;;;;;10.07;4.93;;;13.00;99.90;;;;;;5072180;28;20082;-47
2022/10/26 07:59:22;;;;;;;13.05;4.20;;;13.00;99.90;;;;;;5071186;28;20031;-48
2022/10/26 08:01:48;;;;;;;12.02;4.35;;;13.00;99.90;;;;;;5070138;28;20043;-46
2022/10/26 08:04:14;;;;;;;13.07;4.68;;;13.00;99.90;;;;;;5073713;28;20036;-47
2022/10/26 08:06:39;;;;;;;8.95;4.20;;;13.00;99.90;;;;;;5074210;28;20111;-47
2022/10/26 08:09:05;;;;;;;5.57;3.90;;;13.00;99.90;;;;;;5074635;28;20108;-47
2022/10/26 08:11:30;;;;;;;9.50;3.90;;;13.00;99.90;;;;;;5074349;28;20024;-51
2022/10/26 08:13:56;;;;;;;11.80;4.03;;;13.10;99.90;;;;;;5074387;28;20044;-49
2022/10/26 08:16:22;;;;;;;7.78;3.92;;;13.20;99.90;;;;;;5074606;28;20058;-49
2022/10/26 08:18:48;;;;;;;13.80;5.10;;;13.30;99.90;;;;;;5074538;28;20146;-46
2022/10/26 08:21:14;;;;;;;11.50;4.32;;;13.40;99.90;;;;;;5074289;28;20428;-46
2022/10/26 08:23:40;;;;;;;9.45;4.70;;;13.60;99.90;;;;;;5073844;28;20071;-48
2022/10/26 08:26:06;;;;;;;6.90;4.30;;;13.70;99.90;;;;;;5074193;28;20099;-48
2022/10/26 08:28:32;;;;;;;9.73;3.95;;;13.90;99.90;;;;;;5074331;28;20036;-46
2022/10/26 08:30:58;;;;;;;6.35;4.43;;;14.00;99.90;;;;;;5074434;28;20024;-46
2022/10/26 08:33:24;;;;;;;14.27;4.38;;;14.20;99.90;;;;;;5073926;28;20469;-48
2022/10/26 08:36:01;;;;;;;20.58;12.05;;;14.30;99.90;;;;;;5074012;28;20399;-48
2022/10/26 08:38:27;;;;;;;9.35;4.80;;;14.40;99.90;;;;;;5074235;28;20127;-46
2022/10/26 08:40:55;;;;;;;16.85;4.90;;;14.60;99.90;;;;;;5073902;28;20021;-46
2022/10/26 08:43:24;;;;;;;13.30;4.22;;;14.80;99.90;;;;;;5072478;28;20025;-45
2022/10/26 08:46:20;;;;;;;6.28;3.88;;;14.90;99.90;;;;;;5054054;28;20027;-45
2022/10/26 08:48:58;;;;;;;8.27;3.85;;;14.90;99.90;;;;;;5053979;28;20100;-44
2022/10/26 08:51:35;;;;;;;7.60;4.07;;;15.00;99.90;;;;;;5054318;28;20036;-49
2022/10/26 08:54:03;;;;;;;9.48;4.47;;;15.20;99.90;;;;;;5053612;28;20021;-47
2022/10/26 08:56:37;;;;;;;7.68;4.07;;;15.60;99.90;;;;;;5053672;28;20499;-46
2022/10/26 08:59:09;;;;;;;6.95;3.50;;;16.20;99.90;;;;;;5053974;28;20029;-51
2022/10/26 09:01:35;;;;;;;7.68;2.83;;;17.20;99.90;;;;;;5053123;28;20051;-49
2022/10/26 09:04:02;;;;;;;9.32;3.22;;;18.10;99.90;;;;;;5053472;28;20480;-47
2022/10/26 09:06:45;;;;;;;11.00;2.72;;;18.50;99.90;;;;;;5053451;28;20036;-49
2022/10/26 09:09:18;;;;;;;9.10;2.83;;;18.60;99.90;;;;;;5053177;28;20079;-52
2022/10/26 09:11:49;;;;;;;7.55;2.97;;;18.50;99.90;;;;;;5051659;28;20079;-51
2022/10/26 09:14:49;;;;;;;10.13;2.80;;;18.40;99.90;;;;;;5050836;28;20025;-46
2022/10/26 09:17:39;;;;;;;10.80;2.67;;;18.80;99.90;;;;;;5051308;28;20036;-46
2022/10/26 09:20:32;;;;;;;8.30;2.95;;;19.40;99.90;;;;;;5052786;28;20021;-48
2022/10/26 09:23:12;;;;;;;4.10;2.40;;;19.80;99.90;;;;;;5052601;28;20029;-54
2022/10/26 09:25:39;;;;;;;7.93;2.90;;;19.90;99.90;;;;;;5052746;28;20040;-46
2022/10/26 09:28:10;;;;;;;8.55;2.97;;;19.80;99.90;;;;;;5052927;28;20060;-48
2022/10/26 09:30:36;;;;;;;13.73;2.97;;;20.20;99.90;;;;;;5053082;28;20021;-49
2022/10/26 09:33:16;;;;;;;5.65;3.35;;;20.50;99.90;;;;;;5052878;28;20051;-50
2022/10/26 09:35:51;;;;;;;11.57;6.82;;;20.30;99.90;;;;;;5053029;28;20025;-49
2022/10/26 09:38:33;;;;;;;10.43;6.10;;;19.70;99.90;;;;;;5053412;28;20512;-49
2022/10/26 09:41:25;;;;;;;14.48;6.32;;;19.50;99.90;;;;;;5052939;28;20029;-47
2022/10/26 09:43:57;;;;;;;8.35;3.58;;;19.00;99.90;;;;;;5052301;28;20096;-48
2022/10/26 09:46:51;;;;;;;7.00;2.78;;;18.80;99.90;;;;;;5052447;28;20028;-50
2022/10/26 09:49:19;;;;;;;6.78;3.05;;;19.40;99.90;;;;;;5052556;28;20025;-50
2022/10/26 09:51:46;;;;;;;7.13;3.40;;;19.60;99.90;;;;;;5052532;28;20017;-49
2022/10/26 09:54:17;;;;;;;3.90;2.95;;;19.60;99.90;;;;;;5051014;28;20028;-49
2022/10/26 09:56:54;;;;;;;10.10;3.40;;;19.90;99.90;;;;;;5052668;28;20115;-49
2022/10/26 09:59:22;;;;;;;9.27;3.65;;;19.90;99.90;;;;;;5050874;28;20108;-47
2022/10/26 10:01:48;;;;;;;11.30;3.83;;;19.80;99.90;;;;;;5061483;28;20599;-46
2022/10/26 10:04:21;;;;;;;10.30;3.65;;;19.70;99.90;;;;;;5070142;28;20039;-46
2022/10/26 10:07:08;;;;;;;7.78;3.65;;;19.50;99.90;;;;;;5070715;28;20057;-51
2022/10/26 10:09:34;;;;;;;5.47;3.08;;;19.30;99.90;;;;;;5069977;28;20052;-45
2022/10/26 10:12:02;;;;;;;7.80;3.30;;;19.00;99.90;;;;;;5071177;28;20497;-45
2022/10/26 10:14:36;;;;;;;7.47;3.60;;;19.10;99.90;;;;;;5069679;28;20028;-45
2022/10/26 10:17:07;;;;;;;8.25;3.58;;;19.40;99.90;;;;;;5071773;28;20028;-50
2022/10/26 10:19:35;;;;;;;9.38;2.92;;;19.30;99.90;;;;;;5071401;28;20487;-45
2022/10/26 10:22:10;;;;;;;7.80;3.60;;;19.10;99.90;;;;;;5054716;28;20112;-45
2022/10/26 10:24:38;;;;;;;14.70;3.90;;;19.10;99.90;;;;;;5051126;28;20116;-47
2022/10/26 10:27:16;;;;;;;6.78;4.00;;;19.10;99.90;;;;;;5050477;28;20036;-52
2022/10/26 10:29:48;;;;;;;8.85;3.70;;;18.90;99.90;;;;;;5051563;28;20023;-50
2022/10/26 10:32:21;;;;;;;7.20;3.35;;;18.80;99.90;;;;;;5050380;28;20025;-46
2022/10/26 10:34:51;;;;;;;9.25;3.83;;;19.10;99.90;;;;;;5051288;28;20024;-42
2022/10/26 10:37:27;;;;;;;9.18;3.00;;;19.30;99.90;;;;;;5051578;28;20021;-47
2022/10/26 10:39:59;;;;;;;11.60;4.70;;;19.50;99.90;;;;;;5051020;28;20021;-48
2022/10/26 10:42:29;;;;;;;8.75;3.35;;;19.60;99.90;;;;;;5050383;28;20039;-51
2022/10/26 10:44:56;;;;;;;8.90;3.95;;;19.70;99.90;;;;;;5051067;28;20025;-55
2022/10/26 10:47:25;;;;;;;10.98;3.00;;;19.70;99.90;;;;;;5049618;28;20025;-58
2022/10/26 10:49:54;;;;;;;4.50;2.47;;;19.80;99.90;;;;;;5050996;28;20112;-53
2022/10/26 10:52:38;;;;;;;5.03;2.80;;;19.90;99.90;;;;;;5050997;28;20104;-51
2022/10/26 10:55:14;;;;;;;5.00;2.90;;;19.90;99.90;;;;;;5050420;28;20021;-53
2022/10/26 10:58:05;;;;;;;7.43;2.47;;;19.90;99.90;;;;;;5049631;28;20026;-50
2022/10/26 11:03:15;;;;;;;6.10;3.28;;;19.60;99.90;;;;;;5087786;23;20423;-52
2022/10/26 11:06:05;;;;;;;20.63;13.80;;;19.40;99.90;;;;;;5068990;28;20021;-53
2022/10/26 11:08:47;;;;;;;8.02;3.85;;;19.40;99.90;;;;;;5070663;28;20043;-52
2022/10/26 11:11:22;;;;;;;15.48;6.10;;;19.40;99.90;;;;;;5073969;28;20495;-55
2022/10/26 11:14:09;;;;;;;8.13;2.88;;;19.30;99.90;;;;;;5090798;28;20028;-53
2022/10/26 11:16:42;;;;;;;5.57;2.80;;;19.30;99.90;;;;;;5090465;28;20028;-50
2022/10/26 11:19:23;;;;;;;9.75;3.00;;;19.30;99.90;;;;;;5090925;28;20028;-46
2022/10/26 11:21:53;;;;;;;9.55;2.80;;;19.30;99.90;;;;;;5090303;28;20016;-51
2022/10/26 11:24:43;;;;;;;11.15;2.85;;;19.20;99.90;;;;;;5089777;28;20024;-54
2022/10/26 11:27:16;;;;;;;5.85;2.78;;;19.10;99.90;;;;;;5090808;28;20061;-48
2022/10/26 11:30:04;;;;;;;6.95;3.50;;;19.10;99.90;;;;;;5090580;28;20031;-47
2022/10/26 11:32:40;;;;;;;5.80;2.67;;;19.10;99.90;;;;;;5089628;28;20028;-49
2022/10/26 11:35:23;;;;;;;5.68;2.83;;;19.10;99.90;;;;;;5090605;28;20484;-47
2022/10/26 11:38:03;;;;;;;10.38;2.58;;;19.10;99.90;;;;;;5091137;28;20551;-47
2022/10/26 11:40:52;;;;;;;7.35;3.60;;;19.00;99.90;;;;;;5094511;28;20071;-50
2022/10/26 11:43:40;;;;;;;8.85;3.67;;;19.00;99.90;;;;;;5094055;28;20093;-51
2022/10/26 11:46:12;;;;;;;8.02;2.88;;;19.00;99.90;;;;;;5093817;28;20039;-51
2022/10/26 11:48:56;;;;;;;8.48;2.88;;;19.00;99.90;;;;;;5094252;28;20020;-49
2022/10/26 11:51:32;;;;;;;8.63;3.20;;;19.00;99.90;;;;;;5094254;28;20193;-48
2022/10/26 11:54:03;;;;;;;9.07;3.47;;;19.00;99.90;;;;;;5093493;28;20023;-52
2022/10/26 11:56:33;;;;;;;8.13;2.88;;;19.10;99.90;;;;;;5093936;28;20032;-50
2022/10/26 11:58:58;;;;;;;9.48;2.70;;;19.10;99.90;;;;;;5094065;28;20060;-60
2022/10/26 12:01:26;;;;;;;10.60;3.60;;;19.10;99.90;;;;;;5093223;28;20568;-53
2022/10/26 12:03:53;;;;;;;6.38;2.17;;;19.00;99.90;;;;;;5093209;28;20031;-48
2022/10/26 12:06:24;;;;;;;9.57;2.83;;;19.10;99.90;;;;;;5093820;28;20548;-46
2022/10/26 12:09:15;;;;;;;11.15;2.95;;;19.10;99.90;;;;;;5093921;28;20035;-49
2022/10/26 12:12:05;;;;;;;5.63;2.90;;;19.10;99.90;;;;;;5093379;28;20499;-52
2022/10/26 12:14:33;;;;;;;8.30;3.95;;;19.20;99.90;;;;;;5093642;28;20032;-50
2022/10/26 12:17:06;;;;;;;15.20;3.88;;;19.20;99.90;;;;;;5093395;28;20126;-51
2022/10/26 12:19:45;;;;;;;8.52;3.22;;;19.20;99.90;;;;;;5093617;28;20068;-53
2022/10/26 12:22:14;;;;;;;4.20;2.75;;;19.20;99.90;;;;;;5092980;28;20028;-52
2022/10/26 12:24:44;;;;;;;5.28;2.83;;;19.20;99.90;;;;;;5093182;28;20028;-53
2022/10/26 12:27:32;;;;;;;7.68;3.03;;;19.20;99.90;;;;;;5093321;28;20408;-55
2022/10/26 12:30:16;;;;;;;10.48;3.70;;;19.30;99.90;;;;;;5093048;28;20038;-55
2022/10/26 12:32:46;;;;;;;8.23;2.70;;;19.30;99.90;;;;;;5092615;28;20372;-56
2022/10/26 12:35:31;;;;;;;9.05;2.80;;;19.30;99.90;;;;;;5092951;28;20429;-55
2022/10/26 12:37:57;;;;;;;6.53;2.60;;;19.40;99.90;;;;;;5089817;28;20051;-58
2022/10/26 12:40:32;;;;;;;8.95;2.88;;;19.40;99.90;;;;;;5092244;28;20028;-57
2022/10/26 12:43:17;;;;;;;12.70;3.43;;;19.40;99.90;;;;;;5092316;28;20082;-56
2022/10/26 12:46:06;;;;;;;8.65;2.95;;;19.60;99.90;;;;;;5092798;28;20280;-57
2022/10/26 12:48:45;;;;;;;75.10;56.28;;;19.60;99.90;;;;;;5091339;28;20071;-54
2022/10/26 12:51:20;;;;;;;57.15;35.60;;;19.70;99.90;;;;;;5092232;28;20438;-53
2022/10/26 12:54:03;;;;;;;44.67;19.88;;;19.70;99.90;;;;;;5091371;28;20383;-54
2022/10/26 12:56:37;;;;;;;8.43;2.53;;;19.70;99.90;;;;;;5092531;28;20020;-54
2022/10/26 12:59:28;;;;;;;10.18;2.08;;;19.70;99.90;;;;;;5092125;28;20032;-54
2022/10/26 13:02:28;;;;;;;11.35;2.40;;;19.70;99.90;;;;;;5091987;28;20465;-52
2022/10/26 13:05:18;;;;;;;6.93;2.17;;;19.70;99.90;;;;;;5092296;28;20028;-47
2022/10/26 13:07:45;;;;;;;4.57;2.00;;;19.70;99.90;;;;;;5091895;28;20032;-50